sensor_id;sensor_type;location;lat;lon;timestamp;P1;durP1;ratioP1;P2;durP2;ratioP2
30048;SDS011;16879;50.852;15.602;2024-03-17T00:00:03;8.38;;;4.47;;
30048;SDS011;16879;50.852;15.602;2024-03-17T00:02:30;10.13;;;3.92;;
30048;SDS011;16879;50.852;15.602;2024-03-17T00:04:56;8.93;;;4.88;;
30048;SDS011;16879;50.852;15.602;2024-03-17T00:07:22;11.02;;;4.10;;
30048;SDS011;16879;50.852;15.602;2024-03-17T00:09:48;10.10;;;3.92;;
30048;SDS011;16879;50.852;15.602;2024-03-17T00:12:14;12.10;;;4.97;;
30048;SDS011;16879;50.852;15.602;2024-03-17T00:14:40;11.70;;;4.18;;
30048;SDS011;16879;50.852;15.602;2024-03-17T00:17:07;11.52;;;4.57;;
30048;SDS011;16879;50.852;15.602;2024-03-17T00:19:33;13.80;;;4.88;;
30048;SDS011;16879;50.852;15.602;2024-03-17T00:21:59;7.97;;;4.43;;
30048;SDS011;16879;50.852;15.602;2024-03-17T00:24:26;6.85;;;3.70;;
30048;SDS011;16879;50.852;15.602;2024-03-17T00:26:59;9.18;;;4.13;;
30048;SDS011;16879;50.852;15.602;2024-03-17T00:29:25;9.90;;;4.43;;
30048;SDS011;16879;50.852;15.602;2024-03-17T00:31:53;9.05;;;4.30;;
30048;SDS011;16879;50.852;15.602;2024-03-17T00:34:19;9.65;;;4.82;;
30048;SDS011;16879;50.852;15.602;2024-03-17T00:36:45;6.50;;;4.13;;
30048;SDS011;16879;50.852;15.602;2024-03-17T00:39:11;7.57;;;3.97;;
30048;SDS011;16879;50.852;15.602;2024-03-17T00:41:37;10.15;;;4.13;;
30048;SDS011;16879;50.852;15.602;2024-03-17T00:44:03;6.50;;;4.03;;
30048;SDS011;16879;50.852;15.602;2024-03-17T00:46:29;8.90;;;4.85;;
30048;SDS011;16879;50.852;15.602;2024-03-17T00:48:55;7.78;;;4.78;;
30048;SDS011;16879;50.852;15.602;2024-03-17T00:51:21;12.15;;;5.20;;
30048;SDS011;16879;50.852;15.602;2024-03-17T00:53:47;6.25;;;4.43;;
30048;SDS011;16879;50.852;15.602;2024-03-17T00:56:13;9.63;;;4.07;;
30048;SDS011;16879;50.852;15.602;2024-03-17T00:58:41;10.95;;;4.13;;
30048;SDS011;16879;50.852;15.602;2024-03-17T01:01:09;3.53;;;3.05;;
30048;SDS011;16879;50.852;15.602;2024-03-17T01:03:35;10.85;;;3.95;;
30048;SDS011;16879;50.852;15.602;2024-03-17T01:06:04;11.45;;;5.38;;
30048;SDS011;16879;50.852;15.602;2024-03-17T01:08:30;9.63;;;3.92;;
30048;SDS011;16879;50.852;15.602;2024-03-17T01:10:56;8.02;;;3.97;;
30048;SDS011;16879;50.852;15.602;2024-03-17T01:13:23;12.55;;;4.30;;
30048;SDS011;16879;50.852;15.602;2024-03-17T01:15:54;10.13;;;4.43;;
30048;SDS011;16879;50.852;15.602;2024-03-17T01:18:21;13.70;;;4.65;;
30048;SDS011;16879;50.852;15.602;2024-03-17T01:20:47;10.98;;;3.30;;
30048;SDS011;16879;50.852;15.602;2024-03-17T01:23:12;5.88;;;3.97;;
30048;SDS011;16879;50.852;15.602;2024-03-17T01:25:39;8.25;;;4.22;;
30048;SDS011;16879;50.852;15.602;2024-03-17T01:28:04;6.85;;;3.67;;
30048;SDS011;16879;50.852;15.602;2024-03-17T01:30:31;9.93;;;4.32;;
30048;SDS011;16879;50.852;15.602;2024-03-17T01:32:58;8.07;;;3.60;;
30048;SDS011;16879;50.852;15.602;2024-03-17T01:35:27;8.10;;;3.78;;
30048;SDS011;16879;50.852;15.602;2024-03-17T01:37:53;6.10;;;3.85;;
30048;SDS011;16879;50.852;15.602;2024-03-17T01:40:19;15.05;;;3.38;;
30048;SDS011;16879;50.852;15.602;2024-03-17T01:42:46;14.07;;;3.15;;
30048;SDS011;16879;50.852;15.602;2024-03-17T01:45:30;8.35;;;4.07;;
30048;SDS011;16879;50.852;15.602;2024-03-17T01:48:01;6.95;;;3.08;;
30048;SDS011;16879;50.852;15.602;2024-03-17T01:52:58;7.72;;;3.60;;
30048;SDS011;16879;50.852;15.602;2024-03-17T01:55:26;9.48;;;3.30;;
30048;SDS011;16879;50.852;15.602;2024-03-17T01:57:53;10.50;;;4.05;;
30048;SDS011;16879;50.852;15.602;2024-03-17T02:00:19;11.98;;;4.93;;
30048;SDS011;16879;50.852;15.602;2024-03-17T02:02:46;10.00;;;3.10;;
30048;SDS011;16879;50.852;15.602;2024-03-17T02:05:12;6.28;;;2.90;;
30048;SDS011;16879;50.852;15.602;2024-03-17T02:07:38;9.45;;;3.45;;
30048;SDS011;16879;50.852;15.602;2024-03-17T02:10:04;8.95;;;3.28;;
30048;SDS011;16879;50.852;15.602;2024-03-17T02:12:31;8.02;;;2.85;;
30048;SDS011;16879;50.852;15.602;2024-03-17T02:15:00;5.38;;;3.08;;
30048;SDS011;16879;50.852;15.602;2024-03-17T02:17:26;5.78;;;2.42;;
30048;SDS011;16879;50.852;15.602;2024-03-17T02:19:54;13.02;;;2.70;;
30048;SDS011;16879;50.852;15.602;2024-03-17T02:22:21;11.25;;;3.10;;
30048;SDS011;16879;50.852;15.602;2024-03-17T02:24:46;9.35;;;2.65;;
30048;SDS011;16879;50.852;15.602;2024-03-17T02:27:13;11.10;;;4.00;;
30048;SDS011;16879;50.852;15.602;2024-03-17T02:29:39;10.77;;;3.00;;
30048;SDS011;16879;50.852;15.602;2024-03-17T02:32:05;10.05;;;2.67;;
30048;SDS011;16879;50.852;15.602;2024-03-17T02:34:36;10.40;;;4.07;;
30048;SDS011;16879;50.852;15.602;2024-03-17T02:37:02;7.90;;;2.60;;
30048;SDS011;16879;50.852;15.602;2024-03-17T02:39:30;8.23;;;2.75;;
30048;SDS011;16879;50.852;15.602;2024-03-17T02:41:59;10.00;;;3.05;;
30048;SDS011;16879;50.852;15.602;2024-03-17T02:44:30;8.88;;;2.38;;
30048;SDS011;16879;50.852;15.602;2024-03-17T02:46:59;10.68;;;2.88;;
30048;SDS011;16879;50.852;15.602;2024-03-17T02:49:26;10.93;;;4.07;;
30048;SDS011;16879;50.852;15.602;2024-03-17T02:51:53;11.57;;;3.28;;
30048;SDS011;16879;50.852;15.602;2024-03-17T02:54:20;4.28;;;1.88;;
30048;SDS011;16879;50.852;15.602;2024-03-17T02:56:49;5.85;;;2.22;;
30048;SDS011;16879;50.852;15.602;2024-03-17T02:59:15;9.23;;;2.33;;
30048;SDS011;16879;50.852;15.602;2024-03-17T03:01:41;8.50;;;2.08;;
30048;SDS011;16879;50.852;15.602;2024-03-17T03:04:07;7.28;;;2.08;;
30048;SDS011;16879;50.852;15.602;2024-03-17T03:06:33;9.25;;;2.47;;
30048;SDS011;16879;50.852;15.602;2024-03-17T03:08:59;9.40;;;2.55;;
30048;SDS011;16879;50.852;15.602;2024-03-17T03:11:24;11.13;;;2.47;;
30048;SDS011;16879;50.852;15.602;2024-03-17T03:13:51;12.15;;;2.53;;
30048;SDS011;16879;50.852;15.602;2024-03-17T03:16:16;7.20;;;2.38;;
30048;SDS011;16879;50.852;15.602;2024-03-17T03:18:44;6.90;;;2.55;;
30048;SDS011;16879;50.852;15.602;2024-03-17T03:21:10;6.00;;;2.42;;
30048;SDS011;16879;50.852;15.602;2024-03-17T03:23:40;12.20;;;2.40;;
30048;SDS011;16879;50.852;15.602;2024-03-17T03:26:06;7.63;;;2.65;;
30048;SDS011;16879;50.852;15.602;2024-03-17T03:28:34;13.52;;;2.45;;
30048;SDS011;16879;50.852;15.602;2024-03-17T03:31:01;10.32;;;3.03;;
30048;SDS011;16879;50.852;15.602;2024-03-17T03:33:27;7.75;;;1.77;;
30048;SDS011;16879;50.852;15.602;2024-03-17T03:35:53;9.90;;;2.60;;
30048;SDS011;16879;50.852;15.602;2024-03-17T03:38:20;18.88;;;2.97;;
30048;SDS011;16879;50.852;15.602;2024-03-17T03:40:50;7.85;;;2.40;;
30048;SDS011;16879;50.852;15.602;2024-03-17T03:43:17;11.13;;;2.80;;
30048;SDS011;16879;50.852;15.602;2024-03-17T03:45:43;5.15;;;2.17;;
30048;SDS011;16879;50.852;15.602;2024-03-17T03:48:10;10.23;;;2.97;;
30048;SDS011;16879;50.852;15.602;2024-03-17T03:50:37;11.30;;;2.90;;
30048;SDS011;16879;50.852;15.602;2024-03-17T03:53:05;7.13;;;2.22;;
30048;SDS011;16879;50.852;15.602;2024-03-17T03:55:31;10.07;;;2.03;;
30048;SDS011;16879;50.852;15.602;2024-03-17T03:57:57;10.65;;;2.28;;
30048;SDS011;16879;50.852;15.602;2024-03-17T04:00:23;6.72;;;2.45;;
30048;SDS011;16879;50.852;15.602;2024-03-17T04:02:53;5.45;;;1.85;;
30048;SDS011;16879;50.852;15.602;2024-03-17T04:05:19;9.60;;;2.58;;
30048;SDS011;16879;50.852;15.602;2024-03-17T04:07:45;8.40;;;1.52;;
30048;SDS011;16879;50.852;15.602;2024-03-17T04:10:13;16.45;;;2.80;;
30048;SDS011;16879;50.852;15.602;2024-03-17T04:12:40;11.63;;;2.42;;
30048;SDS011;16879;50.852;15.602;2024-03-17T04:15:07;11.52;;;2.72;;
30048;SDS011;16879;50.852;15.602;2024-03-17T04:17:35;9.98;;;3.10;;
30048;SDS011;16879;50.852;15.602;2024-03-17T04:20:02;11.95;;;2.63;;
30048;SDS011;16879;50.852;15.602;2024-03-17T04:22:30;12.98;;;2.58;;
30048;SDS011;16879;50.852;15.602;2024-03-17T04:24:56;6.97;;;2.28;;
30048;SDS011;16879;50.852;15.602;2024-03-17T04:27:22;15.35;;;3.05;;
30048;SDS011;16879;50.852;15.602;2024-03-17T04:29:54;9.95;;;2.65;;
30048;SDS011;16879;50.852;15.602;2024-03-17T04:32:22;15.65;;;2.88;;
30048;SDS011;16879;50.852;15.602;2024-03-17T04:34:48;6.97;;;2.92;;
30048;SDS011;16879;50.852;15.602;2024-03-17T04:37:14;8.57;;;2.28;;
30048;SDS011;16879;50.852;15.602;2024-03-17T04:39:43;11.57;;;2.30;;
30048;SDS011;16879;50.852;15.602;2024-03-17T04:42:14;9.43;;;2.33;;
30048;SDS011;16879;50.852;15.602;2024-03-17T04:44:40;10.45;;;1.85;;
30048;SDS011;16879;50.852;15.602;2024-03-17T04:47:07;10.07;;;2.15;;
30048;SDS011;16879;50.852;15.602;2024-03-17T04:49:37;7.88;;;2.30;;
30048;SDS011;16879;50.852;15.602;2024-03-17T04:52:08;6.82;;;2.17;;
30048;SDS011;16879;50.852;15.602;2024-03-17T04:54:34;7.10;;;2.40;;
30048;SDS011;16879;50.852;15.602;2024-03-17T04:57:00;16.35;;;2.78;;
30048;SDS011;16879;50.852;15.602;2024-03-17T04:59:27;9.40;;;2.28;;
30048;SDS011;16879;50.852;15.602;2024-03-17T05:01:53;13.63;;;2.58;;
30048;SDS011;16879;50.852;15.602;2024-03-17T05:04:21;6.63;;;2.63;;
30048;SDS011;16879;50.852;15.602;2024-03-17T05:06:50;11.35;;;2.80;;
30048;SDS011;16879;50.852;15.602;2024-03-17T05:09:16;8.52;;;2.58;;
30048;SDS011;16879;50.852;15.602;2024-03-17T05:11:42;18.48;;;3.15;;
30048;SDS011;16879;50.852;15.602;2024-03-17T05:14:11;12.80;;;6.00;;
30048;SDS011;16879;50.852;15.602;2024-03-17T05:16:37;7.97;;;2.75;;
30048;SDS011;16879;50.852;15.602;2024-03-17T05:19:03;14.65;;;3.47;;
30048;SDS011;16879;50.852;15.602;2024-03-17T05:21:29;13.20;;;3.15;;
30048;SDS011;16879;50.852;15.602;2024-03-17T05:23:56;14.65;;;3.10;;
30048;SDS011;16879;50.852;15.602;2024-03-17T05:26:25;8.82;;;3.08;;
30048;SDS011;16879;50.852;15.602;2024-03-17T05:28:51;15.70;;;3.55;;
30048;SDS011;16879;50.852;15.602;2024-03-17T05:31:17;10.60;;;2.63;;
30048;SDS011;16879;50.852;15.602;2024-03-17T05:33:45;13.85;;;2.65;;
30048;SDS011;16879;50.852;15.602;2024-03-17T05:36:11;16.05;;;3.92;;
30048;SDS011;16879;50.852;15.602;2024-03-17T05:38:38;11.05;;;2.78;;
30048;SDS011;16879;50.852;15.602;2024-03-17T05:41:05;12.45;;;2.42;;
30048;SDS011;16879;50.852;15.602;2024-03-17T05:43:32;11.65;;;3.35;;
30048;SDS011;16879;50.852;15.602;2024-03-17T05:46:01;13.55;;;3.40;;
30048;SDS011;16879;50.852;15.602;2024-03-17T05:48:28;11.35;;;3.25;;
30048;SDS011;16879;50.852;15.602;2024-03-17T05:50:54;8.95;;;2.45;;
30048;SDS011;16879;50.852;15.602;2024-03-17T05:53:20;8.38;;;2.72;;
30048;SDS011;16879;50.852;15.602;2024-03-17T05:55:49;16.70;;;3.13;;
30048;SDS011;16879;50.852;15.602;2024-03-17T05:58:15;16.17;;;3.30;;
30048;SDS011;16879;50.852;15.602;2024-03-17T06:00:41;17.40;;;4.60;;
30048;SDS011;16879;50.852;15.602;2024-03-17T06:03:08;11.35;;;3.10;;
30048;SDS011;16879;50.852;15.602;2024-03-17T06:05:35;7.10;;;2.35;;
30048;SDS011;16879;50.852;15.602;2024-03-17T06:08:02;10.02;;;4.07;;
30048;SDS011;16879;50.852;15.602;2024-03-17T06:10:29;15.63;;;3.97;;
30048;SDS011;16879;50.852;15.602;2024-03-17T06:12:56;13.48;;;4.50;;
30048;SDS011;16879;50.852;15.602;2024-03-17T06:15:23;15.13;;;3.30;;
30048;SDS011;16879;50.852;15.602;2024-03-17T06:17:50;12.63;;;2.85;;
30048;SDS011;16879;50.852;15.602;2024-03-17T06:20:19;11.02;;;2.83;;
30048;SDS011;16879;50.852;15.602;2024-03-17T06:22:46;9.98;;;2.50;;
30048;SDS011;16879;50.852;15.602;2024-03-17T06:25:12;8.13;;;3.30;;
30048;SDS011;16879;50.852;15.602;2024-03-17T06:27:40;8.55;;;2.55;;
30048;SDS011;16879;50.852;15.602;2024-03-17T06:30:10;12.43;;;2.00;;
30048;SDS011;16879;50.852;15.602;2024-03-17T06:32:39;12.63;;;2.90;;
30048;SDS011;16879;50.852;15.602;2024-03-17T06:35:13;9.10;;;2.70;;
30048;SDS011;16879;50.852;15.602;2024-03-17T06:37:41;3.75;;;1.80;;
30048;SDS011;16879;50.852;15.602;2024-03-17T06:40:08;10.27;;;2.40;;
30048;SDS011;16879;50.852;15.602;2024-03-17T06:42:40;7.53;;;2.28;;
30048;SDS011;16879;50.852;15.602;2024-03-17T06:45:06;5.05;;;1.90;;
30048;SDS011;16879;50.852;15.602;2024-03-17T06:47:36;11.07;;;3.40;;
30048;SDS011;16879;50.852;15.602;2024-03-17T06:50:03;5.10;;;2.33;;
30048;SDS011;16879;50.852;15.602;2024-03-17T06:52:30;7.25;;;2.30;;
30048;SDS011;16879;50.852;15.602;2024-03-17T06:54:56;7.32;;;1.75;;
30048;SDS011;16879;50.852;15.602;2024-03-17T06:57:23;13.52;;;2.45;;
30048;SDS011;16879;50.852;15.602;2024-03-17T06:59:50;13.05;;;2.17;;
30048;SDS011;16879;50.852;15.602;2024-03-17T07:02:16;7.40;;;2.55;;
30048;SDS011;16879;50.852;15.602;2024-03-17T07:04:43;15.85;;;2.78;;
30048;SDS011;16879;50.852;15.602;2024-03-17T07:07:09;15.93;;;2.58;;
30048;SDS011;16879;50.852;15.602;2024-03-17T07:09:37;8.77;;;2.78;;
30048;SDS011;16879;50.852;15.602;2024-03-17T07:12:06;9.27;;;2.17;;
30048;SDS011;16879;50.852;15.602;2024-03-17T07:14:32;7.43;;;2.17;;
30048;SDS011;16879;50.852;15.602;2024-03-17T07:16:58;8.07;;;2.13;;
30048;SDS011;16879;50.852;15.602;2024-03-17T07:19:24;8.38;;;2.25;;
30048;SDS011;16879;50.852;15.602;2024-03-17T07:21:49;11.05;;;2.65;;
30048;SDS011;16879;50.852;15.602;2024-03-17T07:24:15;8.93;;;2.90;;
30048;SDS011;16879;50.852;15.602;2024-03-17T07:26:41;13.82;;;2.75;;
30048;SDS011;16879;50.852;15.602;2024-03-17T07:29:07;4.63;;;2.33;;
30048;SDS011;16879;50.852;15.602;2024-03-17T07:31:33;13.90;;;2.80;;
30048;SDS011;16879;50.852;15.602;2024-03-17T07:33:59;7.25;;;2.38;;
30048;SDS011;16879;50.852;15.602;2024-03-17T07:36:27;13.82;;;3.00;;
30048;SDS011;16879;50.852;15.602;2024-03-17T07:38:53;11.32;;;2.90;;
30048;SDS011;16879;50.852;15.602;2024-03-17T07:41:19;6.85;;;2.92;;
30048;SDS011;16879;50.852;15.602;2024-03-17T07:43:45;11.18;;;3.22;;
30048;SDS011;16879;50.852;15.602;2024-03-17T07:46:12;9.05;;;2.92;;
30048;SDS011;16879;50.852;15.602;2024-03-17T07:48:42;6.80;;;2.60;;
30048;SDS011;16879;50.852;15.602;2024-03-17T07:51:10;8.75;;;2.78;;
30048;SDS011;16879;50.852;15.602;2024-03-17T07:53:38;6.28;;;2.38;;
30048;SDS011;16879;50.852;15.602;2024-03-17T07:56:08;9.90;;;3.40;;
30048;SDS011;16879;50.852;15.602;2024-03-17T07:58:36;6.47;;;1.80;;
30048;SDS011;16879;50.852;15.602;2024-03-17T08:01:04;7.60;;;2.08;;
30048;SDS011;16879;50.852;15.602;2024-03-17T08:03:32;6.65;;;2.35;;
30048;SDS011;16879;50.852;15.602;2024-03-17T08:05:59;6.60;;;2.47;;
30048;SDS011;16879;50.852;15.602;2024-03-17T08:08:26;7.88;;;2.33;;
30048;SDS011;16879;50.852;15.602;2024-03-17T08:10:52;10.38;;;2.55;;
30048;SDS011;16879;50.852;15.602;2024-03-17T08:13:19;9.55;;;3.30;;
30048;SDS011;16879;50.852;15.602;2024-03-17T08:15:46;5.45;;;1.90;;
30048;SDS011;16879;50.852;15.602;2024-03-17T08:18:22;8.50;;;2.40;;
30048;SDS011;16879;50.852;15.602;2024-03-17T08:20:48;6.82;;;2.10;;
30048;SDS011;16879;50.852;15.602;2024-03-17T08:23:14;4.10;;;1.73;;
30048;SDS011;16879;50.852;15.602;2024-03-17T08:25:40;7.35;;;2.22;;
30048;SDS011;16879;50.852;15.602;2024-03-17T08:28:06;3.45;;;2.05;;
30048;SDS011;16879;50.852;15.602;2024-03-17T08:30:34;6.47;;;2.08;;
30048;SDS011;16879;50.852;15.602;2024-03-17T08:33:00;7.00;;;2.00;;
30048;SDS011;16879;50.852;15.602;2024-03-17T08:35:26;8.27;;;2.22;;
30048;SDS011;16879;50.852;15.602;2024-03-17T08:37:52;6.18;;;2.00;;
30048;SDS011;16879;50.852;15.602;2024-03-17T08:40:21;11.30;;;2.47;;
30048;SDS011;16879;50.852;15.602;2024-03-17T08:42:48;9.70;;;1.83;;
30048;SDS011;16879;50.852;15.602;2024-03-17T08:45:14;5.70;;;2.03;;
30048;SDS011;16879;50.852;15.602;2024-03-17T08:47:41;7.20;;;1.90;;
30048;SDS011;16879;50.852;15.602;2024-03-17T08:50:07;4.30;;;2.35;;
30048;SDS011;16879;50.852;15.602;2024-03-17T08:52:33;6.20;;;2.30;;
30048;SDS011;16879;50.852;15.602;2024-03-17T08:55:00;5.28;;;2.10;;
30048;SDS011;16879;50.852;15.602;2024-03-17T08:57:29;5.88;;;2.00;;
30048;SDS011;16879;50.852;15.602;2024-03-17T08:59:54;10.20;;;2.72;;
30048;SDS011;16879;50.852;15.602;2024-03-17T09:02:22;5.50;;;2.15;;
30048;SDS011;16879;50.852;15.602;2024-03-17T09:04:48;5.75;;;1.60;;
30048;SDS011;16879;50.852;15.602;2024-03-17T09:07:14;3.88;;;1.85;;
30048;SDS011;16879;50.852;15.602;2024-03-17T09:09:43;6.47;;;2.00;;
30048;SDS011;16879;50.852;15.602;2024-03-17T09:12:09;11.00;;;2.00;;
30048;SDS011;16879;50.852;15.602;2024-03-17T09:14:34;10.73;;;2.10;;
30048;SDS011;16879;50.852;15.602;2024-03-17T09:17:00;9.05;;;3.00;;
30048;SDS011;16879;50.852;15.602;2024-03-17T09:19:26;6.13;;;2.08;;
30048;SDS011;16879;50.852;15.602;2024-03-17T09:21:55;8.00;;;1.92;;
30048;SDS011;16879;50.852;15.602;2024-03-17T09:24:21;5.13;;;2.03;;
30048;SDS011;16879;50.852;15.602;2024-03-17T09:26:47;3.83;;;2.08;;
30048;SDS011;16879;50.852;15.602;2024-03-17T09:29:12;7.95;;;3.05;;
30048;SDS011;16879;50.852;15.602;2024-03-17T09:31:40;5.43;;;2.05;;
30048;SDS011;16879;50.852;15.602;2024-03-17T09:34:07;6.50;;;1.95;;
30048;SDS011;16879;50.852;15.602;2024-03-17T09:36:34;8.98;;;2.13;;
30048;SDS011;16879;50.852;15.602;2024-03-17T09:39:00;11.35;;;4.15;;
30048;SDS011;16879;50.852;15.602;2024-03-17T09:41:29;6.68;;;2.78;;
30048;SDS011;16879;50.852;15.602;2024-03-17T09:43:58;7.50;;;2.53;;
30048;SDS011;16879;50.852;15.602;2024-03-17T09:46:25;3.28;;;2.00;;
30048;SDS011;16879;50.852;15.602;2024-03-17T09:48:54;6.97;;;2.70;;
30048;SDS011;16879;50.852;15.602;2024-03-17T09:51:20;6.95;;;2.83;;
30048;SDS011;16879;50.852;15.602;2024-03-17T09:53:47;5.68;;;2.25;;
30048;SDS011;16879;50.852;15.602;2024-03-17T09:56:14;6.93;;;2.97;;
30048;SDS011;16879;50.852;15.602;2024-03-17T09:58:50;9.02;;;2.63;;
30048;SDS011;16879;50.852;15.602;2024-03-17T10:01:17;10.43;;;2.05;;
30048;SDS011;16879;50.852;15.602;2024-03-17T10:03:53;7.80;;;2.72;;
30048;SDS011;16879;50.852;15.602;2024-03-17T10:06:24;4.78;;;1.65;;
30048;SDS011;16879;50.852;15.602;2024-03-17T10:08:55;6.25;;;1.95;;
30048;SDS011;16879;50.852;15.602;2024-03-17T10:11:35;5.55;;;2.13;;
30048;SDS011;16879;50.852;15.602;2024-03-17T10:14:05;8.10;;;1.95;;
30048;SDS011;16879;50.852;15.602;2024-03-17T10:16:36;8.23;;;2.75;;
30048;SDS011;16879;50.852;15.602;2024-03-17T10:19:07;8.50;;;2.42;;
30048;SDS011;16879;50.852;15.602;2024-03-17T10:21:35;5.47;;;1.67;;
30048;SDS011;16879;50.852;15.602;2024-03-17T10:24:06;6.90;;;2.03;;
30048;SDS011;16879;50.852;15.602;2024-03-17T10:26:59;7.50;;;1.60;;
30048;SDS011;16879;50.852;15.602;2024-03-17T10:29:27;6.72;;;2.20;;
30048;SDS011;16879;50.852;15.602;2024-03-17T10:31:56;5.00;;;2.22;;
30048;SDS011;16879;50.852;15.602;2024-03-17T10:34:23;5.22;;;1.80;;
30048;SDS011;16879;50.852;15.602;2024-03-17T10:37:05;6.13;;;1.65;;
30048;SDS011;16879;50.852;15.602;2024-03-17T10:39:31;3.78;;;1.85;;
30048;SDS011;16879;50.852;15.602;2024-03-17T10:42:02;6.70;;;2.42;;
30048;SDS011;16879;50.852;15.602;2024-03-17T10:44:32;6.97;;;2.60;;
30048;SDS011;16879;50.852;15.602;2024-03-17T10:47:01;15.00;;;3.92;;
30048;SDS011;16879;50.852;15.602;2024-03-17T10:51:58;10.82;;;2.58;;
30048;SDS011;16879;50.852;15.602;2024-03-17T10:54:24;4.43;;;2.33;;
30048;SDS011;16879;50.852;15.602;2024-03-17T10:56:54;6.97;;;2.60;;
30048;SDS011;16879;50.852;15.602;2024-03-17T10:59:23;14.48;;;4.03;;
30048;SDS011;16879;50.852;15.602;2024-03-17T11:01:58;9.20;;;2.22;;
30048;SDS011;16879;50.852;15.602;2024-03-17T11:04:26;8.02;;;2.10;;
30048;SDS011;16879;50.852;15.602;2024-03-17T11:06:52;8.07;;;2.08;;
30048;SDS011;16879;50.852;15.602;2024-03-17T11:09:19;9.15;;;2.00;;
30048;SDS011;16879;50.852;15.602;2024-03-17T11:11:48;5.95;;;2.30;;
30048;SDS011;16879;50.852;15.602;2024-03-17T11:14:18;4.70;;;1.70;;
30048;SDS011;16879;50.852;15.602;2024-03-17T11:16:45;5.72;;;2.08;;
30048;SDS011;16879;50.852;15.602;2024-03-17T11:19:16;8.25;;;3.10;;
30048;SDS011;16879;50.852;15.602;2024-03-17T11:21:42;7.32;;;2.60;;
30048;SDS011;16879;50.852;15.602;2024-03-17T11:24:21;4.95;;;1.98;;
30048;SDS011;16879;50.852;15.602;2024-03-17T11:26:48;8.05;;;2.33;;
30048;SDS011;16879;50.852;15.602;2024-03-17T11:29:26;6.53;;;1.95;;
30048;SDS011;16879;50.852;15.602;2024-03-17T11:31:53;7.38;;;3.30;;
30048;SDS011;16879;50.852;15.602;2024-03-17T11:34:31;6.28;;;2.72;;
30048;SDS011;16879;50.852;15.602;2024-03-17T11:36:59;6.95;;;2.97;;
30048;SDS011;16879;50.852;15.602;2024-03-17T11:42:21;6.20;;;2.42;;
30048;SDS011;16879;50.852;15.602;2024-03-17T11:45:00;5.60;;;1.90;;
30048;SDS011;16879;50.852;15.602;2024-03-17T11:47:41;6.38;;;2.03;;
30048;SDS011;16879;50.852;15.602;2024-03-17T11:50:08;7.07;;;2.40;;
30048;SDS011;16879;50.852;15.602;2024-03-17T11:52:36;4.95;;;2.42;;
30048;SDS011;16879;50.852;15.602;2024-03-17T11:55:03;11.43;;;3.47;;
30048;SDS011;16879;50.852;15.602;2024-03-17T11:57:29;6.10;;;2.72;;
30048;SDS011;16879;50.852;15.602;2024-03-17T11:59:57;5.40;;;2.17;;
30048;SDS011;16879;50.852;15.602;2024-03-17T12:02:26;4.68;;;2.47;;
30048;SDS011;16879;50.852;15.602;2024-03-17T12:04:54;10.70;;;3.17;;
30048;SDS011;16879;50.852;15.602;2024-03-17T12:07:25;6.65;;;3.38;;
30048;SDS011;16879;50.852;15.602;2024-03-17T12:09:53;7.18;;;2.55;;
30048;SDS011;16879;50.852;15.602;2024-03-17T12:12:26;4.80;;;1.88;;
30048;SDS011;16879;50.852;15.602;2024-03-17T12:15:00;3.05;;;1.83;;
30048;SDS011;16879;50.852;15.602;2024-03-17T12:17:27;4.60;;;2.30;;
30048;SDS011;16879;50.852;15.602;2024-03-17T12:19:56;7.57;;;2.00;;
30048;SDS011;16879;50.852;15.602;2024-03-17T12:22:23;4.72;;;1.73;;
30048;SDS011;16879;50.852;15.602;2024-03-17T12:24:52;7.03;;;2.25;;
30048;SDS011;16879;50.852;15.602;2024-03-17T12:27:22;6.15;;;2.15;;
30048;SDS011;16879;50.852;15.602;2024-03-17T12:29:50;5.43;;;1.65;;
30048;SDS011;16879;50.852;15.602;2024-03-17T12:32:21;8.30;;;2.00;;
30048;SDS011;16879;50.852;15.602;2024-03-17T12:37:18;8.75;;;2.28;;
30048;SDS011;16879;50.852;15.602;2024-03-17T12:39:45;8.68;;;2.58;;
30048;SDS011;16879;50.852;15.602;2024-03-17T12:42:12;6.90;;;2.50;;
30048;SDS011;16879;50.852;15.602;2024-03-17T12:44:49;26.67;;;3.72;;
30048;SDS011;16879;50.852;15.602;2024-03-17T12:47:23;7.57;;;2.10;;
30048;SDS011;16879;50.852;15.602;2024-03-17T12:49:50;8.70;;;2.22;;
30048;SDS011;16879;50.852;15.602;2024-03-17T12:52:23;4.75;;;2.20;;
30048;SDS011;16879;50.852;15.602;2024-03-17T12:54:57;11.20;;;3.40;;
30048;SDS011;16879;50.852;15.602;2024-03-17T12:57:47;19.95;;;3.35;;
30048;SDS011;16879;50.852;15.602;2024-03-17T13:00:32;15.38;;;2.80;;
30048;SDS011;16879;50.852;15.602;2024-03-17T13:02:59;13.65;;;2.38;;
30048;SDS011;16879;50.852;15.602;2024-03-17T13:05:31;13.48;;;2.83;;
30048;SDS011;16879;50.852;15.602;2024-03-17T13:07:59;14.30;;;3.17;;
30048;SDS011;16879;50.852;15.602;2024-03-17T13:10:27;6.43;;;2.58;;
30048;SDS011;16879;50.852;15.602;2024-03-17T13:13:04;6.00;;;2.25;;
30048;SDS011;16879;50.852;15.602;2024-03-17T13:15:33;9.73;;;2.42;;
30048;SDS011;16879;50.852;15.602;2024-03-17T13:18:03;8.77;;;2.00;;
30048;SDS011;16879;50.852;15.602;2024-03-17T13:20:30;6.05;;;2.33;;
30048;SDS011;16879;50.852;15.602;2024-03-17T13:22:57;11.00;;;2.63;;
30048;SDS011;16879;50.852;15.602;2024-03-17T13:25:25;18.42;;;3.47;;
30048;SDS011;16879;50.852;15.602;2024-03-17T13:27:55;8.05;;;2.13;;
30048;SDS011;16879;50.852;15.602;2024-03-17T13:30:22;8.65;;;2.53;;
30048;SDS011;16879;50.852;15.602;2024-03-17T13:32:49;21.63;;;4.05;;
30048;SDS011;16879;50.852;15.602;2024-03-17T13:35:26;16.05;;;2.50;;
30048;SDS011;16879;50.852;15.602;2024-03-17T13:37:54;7.93;;;1.88;;
30048;SDS011;16879;50.852;15.602;2024-03-17T13:40:26;4.82;;;2.42;;
30048;SDS011;16879;50.852;15.602;2024-03-17T13:42:54;7.55;;;2.70;;
30048;SDS011;16879;50.852;15.602;2024-03-17T13:45:21;10.00;;;2.15;;
30048;SDS011;16879;50.852;15.602;2024-03-17T13:47:59;12.77;;;4.10;;
30048;SDS011;16879;50.852;15.602;2024-03-17T13:50:26;12.65;;;2.97;;
30048;SDS011;16879;50.852;15.602;2024-03-17T13:52:52;17.58;;;2.65;;
30048;SDS011;16879;50.852;15.602;2024-03-17T13:55:19;20.58;;;3.20;;
30048;SDS011;16879;50.852;15.602;2024-03-17T13:57:46;24.08;;;4.30;;
30048;SDS011;16879;50.852;15.602;2024-03-17T14:00:16;9.30;;;2.33;;
30048;SDS011;16879;50.852;15.602;2024-03-17T14:02:47;13.25;;;3.00;;
30048;SDS011;16879;50.852;15.602;2024-03-17T14:05:15;11.55;;;2.35;;
30048;SDS011;16879;50.852;15.602;2024-03-17T14:07:45;11.05;;;2.67;;
30048;SDS011;16879;50.852;15.602;2024-03-17T14:10:13;12.63;;;3.13;;
30048;SDS011;16879;50.852;15.602;2024-03-17T14:12:39;11.10;;;2.47;;
30048;SDS011;16879;50.852;15.602;2024-03-17T14:15:06;11.73;;;2.35;;
30048;SDS011;16879;50.852;15.602;2024-03-17T14:17:39;5.78;;;2.50;;
30048;SDS011;16879;50.852;15.602;2024-03-17T14:20:06;4.25;;;1.92;;
30048;SDS011;16879;50.852;15.602;2024-03-17T14:22:38;10.70;;;2.95;;
30048;SDS011;16879;50.852;15.602;2024-03-17T14:25:08;11.30;;;2.60;;
30048;SDS011;16879;50.852;15.602;2024-03-17T14:27:36;24.10;;;3.75;;
30048;SDS011;16879;50.852;15.602;2024-03-17T14:30:02;15.07;;;2.67;;
30048;SDS011;16879;50.852;15.602;2024-03-17T14:32:29;13.38;;;2.67;;
30048;SDS011;16879;50.852;15.602;2024-03-17T14:34:55;7.07;;;2.53;;
30048;SDS011;16879;50.852;15.602;2024-03-17T14:37:21;8.30;;;2.38;;
30048;SDS011;16879;50.852;15.602;2024-03-17T14:39:53;7.32;;;2.05;;
30048;SDS011;16879;50.852;15.602;2024-03-17T14:42:19;8.82;;;2.58;;